Time;durP1;ratioP1;P1;durP2;ratioP2;P2;SDS_P1;SDS_P2;PMS_P1;PMS_P2;Temp;Humidity;BMP_temperature;BMP_pressure;BME280_temperature;BME280_humidity;BME280_pressure;Samples;Min_cycle;Max_cycle;Signal;HPM_P1;HPM_P2
2022/03/30 00:00:16;;;;;;;17.93;12.20;;;10.10;99.90;;;;;;5072934;28;20448;-66
2022/03/30 00:02:43;;;;;;;22.73;12.57;;;10.10;99.90;;;;;;5089470;28;21233;-68
2022/03/30 00:05:10;;;;;;;16.07;11.60;;;10.10;99.90;;;;;;5073232;28;20513;-67
2022/03/30 00:07:37;;;;;;;15.30;11.20;;;10.10;99.90;;;;;;5076706;28;20993;-67
2022/03/30 00:10:07;;;;;;;19.57;12.27;;;10.10;99.90;;;;;;5077412;28;20450;-67
2022/03/30 00:12:34;;;;;;;17.03;12.27;;;10.20;99.90;;;;;;5076702;28;20474;-67
2022/03/30 00:15:01;;;;;;;16.70;12.17;;;10.20;99.90;;;;;;5075493;28;21098;-68
2022/03/30 00:17:28;;;;;;;17.00;11.27;;;10.20;99.90;;;;;;5080498;28;20521;-67
2022/03/30 00:19:56;;;;;;;18.00;11.80;;;10.20;99.90;;;;;;5077558;28;20447;-69
2022/03/30 00:22:23;;;;;;;18.10;12.03;;;10.30;99.90;;;;;;5075043;28;20455;-66
2022/03/30 00:24:50;;;;;;;17.90;12.30;;;10.30;99.90;;;;;;5074825;28;20502;-68
2022/03/30 00:27:18;;;;;;;16.37;10.33;;;10.30;99.90;;;;;;5079500;28;20512;-69
2022/03/30 00:29:45;;;;;;;16.73;13.97;;;10.30;99.90;;;;;;5092733;28;20463;-68
2022/03/30 00:32:12;;;;;;;19.20;10.67;;;10.30;99.90;;;;;;5076486;28;20549;-68
2022/03/30 00:34:40;;;;;;;17.23;12.20;;;10.40;99.90;;;;;;5088473;28;20453;-67
2022/03/30 00:37:06;;;;;;;15.10;11.20;;;10.30;99.90;;;;;;5085931;28;20483;-67
2022/03/30 00:39:33;;;;;;;16.10;11.77;;;10.30;99.90;;;;;;5074723;28;20454;-67
2022/03/30 00:42:00;;;;;;;21.73;11.27;;;10.30;99.90;;;;;;5079702;28;20447;-68
2022/03/30 00:44:28;;;;;;;15.70;11.77;;;10.30;99.90;;;;;;5084283;28;20525;-66
2022/03/30 00:46:54;;;;;;;17.03;11.63;;;10.30;99.90;;;;;;5084848;28;20450;-66
2022/03/30 00:49:21;;;;;;;17.87;11.60;;;10.40;99.90;;;;;;5078406;28;20563;-66
2022/03/30 00:51:48;;;;;;;15.80;9.73;;;10.30;99.90;;;;;;5089288;28;20507;-68
2022/03/30 00:54:15;;;;;;;17.20;11.03;;;10.40;99.90;;;;;;5084345;28;20450;-67
2022/03/30 00:56:43;;;;;;;15.97;11.30;;;10.30;99.90;;;;;;5085613;28;20482;-67
2022/03/30 00:59:11;;;;;;;16.03;11.10;;;10.30;99.90;;;;;;5077637;28;20481;-68
2022/03/30 01:01:39;;;;;;;18.50;11.70;;;10.20;99.90;;;;;;5073577;28;20611;-67
2022/03/30 01:04:07;;;;;;;16.20;11.47;;;10.20;99.90;;;;;;5089233;28;20455;-66
2022/03/30 01:06:34;;;;;;;13.23;9.50;;;10.10;99.90;;;;;;5083519;28;21016;-67
2022/03/30 01:09:01;;;;;;;15.63;12.10;;;10.10;99.90;;;;;;5084449;28;20474;-68
2022/03/30 01:11:28;;;;;;;19.50;9.70;;;10.10;99.90;;;;;;5081579;28;20509;-68
2022/03/30 01:13:55;;;;;;;15.33;10.33;;;10.00;99.90;;;;;;5076988;28;20448;-66
2022/03/30 01:16:23;;;;;;;17.50;13.03;;;10.00;99.90;;;;;;5080402;28;20933;-68
2022/03/30 01:19:03;;;;;;;16.40;11.97;;;9.90;99.90;;;;;;5087248;28;20478;-67
2022/03/30 01:21:31;;;;;;;19.13;11.37;;;9.90;99.90;;;;;;5081096;28;20467;-69
2022/03/30 01:23:57;;;;;;;15.23;11.63;;;9.90;99.90;;;;;;5087961;28;20444;-68
2022/03/30 01:26:25;;;;;;;14.30;11.67;;;9.80;99.90;;;;;;5082835;28;20516;-67
2022/03/30 01:28:52;;;;;;;15.77;10.77;;;9.80;99.90;;;;;;5075158;28;20503;-66
2022/03/30 01:34:03;;;;;;;13.57;11.07;;;9.90;99.90;;;;;;5070783;28;20430;-68
2022/03/30 01:36:31;;;;;;;14.00;11.30;;;10.00;99.90;;;;;;5071637;28;20490;-66
2022/03/30 01:38:57;;;;;;;20.57;11.03;;;10.00;99.90;;;;;;5072775;28;20479;-66
2022/03/30 01:41:24;;;;;;;14.40;11.10;;;10.00;99.90;;;;;;5088629;28;20459;-66
2022/03/30 01:43:51;;;;;;;15.57;10.70;;;9.90;99.90;;;;;;5073831;28;21114;-66
2022/03/30 01:46:17;;;;;;;16.53;11.90;;;9.70;99.90;;;;;;5074264;28;20447;-68
2022/03/30 01:48:44;;;;;;;13.70;11.53;;;9.60;99.90;;;;;;5065882;28;20545;-68
2022/03/30 01:51:10;;;;;;;14.43;10.57;;;9.50;99.90;;;;;;5073611;28;20946;-65
2022/03/30 01:53:38;;;;;;;19.37;12.63;;;9.50;99.90;;;;;;5074023;28;20451;-66
2022/03/30 01:56:05;;;;;;;18.08;12.00;;;9.40;99.90;;;;;;5081876;28;20475;-68
2022/03/30 01:58:32;;;;;;;16.90;10.80;;;9.30;99.90;;;;;;5063833;28;20221;-66
2022/03/30 02:00:59;;;;;;;14.10;10.18;;;9.20;99.90;;;;;;5074426;28;21032;-66
2022/03/30 02:03:25;;;;;;;17.60;12.93;;;9.20;99.90;;;;;;5087994;28;20849;-67
2022/03/30 02:05:52;;;;;;;18.43;12.57;;;9.10;99.90;;;;;;5079111;28;20587;-65
2022/03/30 02:08:19;;;;;;;16.17;11.60;;;9.10;99.90;;;;;;5070600;28;21049;-68
2022/03/30 02:10:47;;;;;;;19.55;12.65;;;9.00;99.90;;;;;;5073201;28;20451;-67
2022/03/30 02:13:14;;;;;;;18.10;11.07;;;9.00;99.90;;;;;;5070210;28;20201;-67
2022/03/30 02:15:41;;;;;;;19.52;10.85;;;8.90;99.90;;;;;;5079085;28;20262;-66
2022/03/30 02:18:08;;;;;;;17.10;10.63;;;8.90;99.90;;;;;;5087337;28;20228;-66
2022/03/30 02:20:34;;;;;;;16.52;11.35;;;8.80;99.90;;;;;;5076817;28;20700;-66
2022/03/30 02:23:01;;;;;;;16.30;11.15;;;8.80;99.90;;;;;;5086898;28;20209;-67
2022/03/30 02:25:28;;;;;;;14.95;11.18;;;8.80;99.90;;;;;;5073484;28;20239;-65
2022/03/30 02:27:56;;;;;;;22.58;12.50;;;8.70;99.90;;;;;;5079715;28;20255;-67
2022/03/30 02:30:22;;;;;;;18.90;12.20;;;8.70;99.90;;;;;;5079764;28;20200;-66
2022/03/30 02:32:49;;;;;;;19.48;11.80;;;8.70;99.90;;;;;;5072364;28;20293;-65
2022/03/30 02:35:17;;;;;;;14.57;11.45;;;8.70;99.90;;;;;;5078594;28;20247;-66
2022/03/30 02:37:44;;;;;;;17.23;11.63;;;8.70;99.90;;;;;;5083145;28;20247;-67
2022/03/30 02:40:12;;;;;;;19.77;11.38;;;8.70;99.90;;;;;;5082131;28;20205;-66
2022/03/30 02:42:38;;;;;;;16.55;9.38;;;8.70;99.90;;;;;;5071739;28;20274;-65
2022/03/30 02:45:08;;;;;;;15.10;10.95;;;8.70;99.90;;;;;;5069793;28;20213;-67
2022/03/30 02:50:33;;;;;;;18.98;11.20;;;8.70;99.90;;;;;;5005298;28;20562;-65
2022/03/30 02:52:59;;;;;;;16.60;11.23;;;8.70;99.90;;;;;;5020118;28;20213;-65
2022/03/30 02:55:26;;;;;;;16.13;11.43;;;8.70;99.90;;;;;;5034370;28;20864;-67
2022/03/30 02:57:53;;;;;;;21.13;13.25;;;8.70;99.90;;;;;;5071114;28;20232;-65
2022/03/30 03:00:21;;;;;;;15.05;10.63;;;8.70;99.90;;;;;;5071647;28;20192;-67
2022/03/30 03:02:48;;;;;;;23.70;12.40;;;8.70;99.90;;;;;;5075826;28;20196;-67
2022/03/30 03:05:15;;;;;;;17.83;12.68;;;8.70;99.90;;;;;;5076716;28;20209;-65
2022/03/30 03:07:42;;;;;;;17.92;12.43;;;8.70;99.90;;;;;;5077406;28;20250;-65
2022/03/30 03:10:09;;;;;;;17.88;13.63;;;8.70;99.90;;;;;;5076579;28;20817;-67
2022/03/30 03:12:36;;;;;;;16.55;12.57;;;8.70;99.90;;;;;;5086377;28;20657;-67
2022/03/30 03:15:02;;;;;;;16.05;11.05;;;8.70;99.90;;;;;;5074249;28;20266;-67
2022/03/30 03:17:31;;;;;;;19.45;12.85;;;8.70;99.90;;;;;;5076884;28;20228;-65
2022/03/30 03:19:57;;;;;;;16.10;12.15;;;8.70;99.90;;;;;;5074640;28;20200;-68
2022/03/30 03:22:24;;;;;;;13.80;11.15;;;8.70;99.90;;;;;;5080687;28;20254;-65
2022/03/30 03:24:50;;;;;;;14.75;10.98;;;8.60;99.90;;;;;;5074638;28;20201;-65
2022/03/30 03:27:17;;;;;;;19.42;10.77;;;8.60;99.90;;;;;;5069755;28;20223;-66
2022/03/30 03:29:44;;;;;;;19.63;10.75;;;8.70;99.90;;;;;;5071252;28;20212;-65
2022/03/30 03:32:11;;;;;;;17.73;10.82;;;8.60;99.90;;;;;;5079212;28;20200;-66
2022/03/30 03:34:39;;;;;;;19.55;13.50;;;8.60;99.90;;;;;;5083961;28;20199;-67
2022/03/30 03:37:06;;;;;;;13.43;10.15;;;8.70;99.90;;;;;;5068801;28;20220;-65
2022/03/30 03:39:32;;;;;;;16.45;11.05;;;8.80;99.90;;;;;;5076583;28;20217;-67
2022/03/30 03:41:59;;;;;;;17.58;12.48;;;8.80;99.90;;;;;;5077052;28;20607;-65
2022/03/30 03:44:25;;;;;;;19.65;12.45;;;8.80;99.90;;;;;;5077910;28;20201;-67
2022/03/30 03:46:54;;;;;;;17.33;12.70;;;8.80;99.90;;;;;;5082827;28;20233;-66
2022/03/30 03:49:21;;;;;;;17.35;10.88;;;8.80;99.90;;;;;;5085838;28;20587;-66
2022/03/30 03:51:49;;;;;;;21.27;12.90;;;8.90;99.90;;;;;;5083464;28;20208;-66
2022/03/30 03:54:15;;;;;;;22.42;15.52;;;8.90;99.90;;;;;;5069990;28;20278;-66
2022/03/30 03:56:42;;;;;;;15.70;12.27;;;8.90;99.90;;;;;;5068415;28;20666;-67
2022/03/30 03:59:09;;;;;;;15.57;11.40;;;8.90;99.90;;;;;;5072071;28;20776;-67
2022/03/30 04:01:35;;;;;;;16.43;10.27;;;8.90;99.90;;;;;;5067851;28;20554;-68
2022/03/30 04:04:02;;;;;;;14.93;11.38;;;8.90;99.90;;;;;;5073479;28;20520;-68
2022/03/30 04:06:29;;;;;;;15.97;12.67;;;8.90;99.90;;;;;;5070429;28;20207;-67
2022/03/30 04:08:57;;;;;;;14.03;11.57;;;8.90;99.90;;;;;;5079875;28;20477;-68
2022/03/30 04:11:24;;;;;;;13.90;11.20;;;8.90;99.90;;;;;;5078281;28;20465;-68
2022/03/30 04:13:51;;;;;;;14.85;11.88;;;9.00;99.90;;;;;;5060965;28;20232;-68
2022/03/30 04:16:18;;;;;;;17.30;11.90;;;9.00;99.90;;;;;;5073180;28;20659;-67
2022/03/30 04:18:45;;;;;;;14.85;11.55;;;8.90;99.90;;;;;;5068708;28;20517;-66
2022/03/30 04:21:12;;;;;;;13.48;10.55;;;8.90;99.90;;;;;;5071191;28;20858;-67
2022/03/30 04:23:38;;;;;;;17.57;11.70;;;8.90;99.90;;;;;;5077324;28;20234;-67
2022/03/30 04:26:09;;;;;;;22.30;12.90;;;8.80;99.90;;;;;;5067394;28;20443;-67
2022/03/30 04:28:40;;;;;;;18.05;11.82;;;8.80;99.90;;;;;;5069286;28;20228;-68
2022/03/30 04:31:07;;;;;;;14.15;11.48;;;8.80;99.90;;;;;;5069146;28;20205;-67
2022/03/30 04:33:34;;;;;;;17.60;11.27;;;8.80;99.90;;;;;;5072140;28;20193;-66
2022/03/30 04:36:01;;;;;;;16.93;11.50;;;8.80;99.90;;;;;;5083414;28;20450;-68
2022/03/30 04:38:27;;;;;;;15.77;11.48;;;8.80;99.90;;;;;;5075615;28;20486;-66
2022/03/30 04:40:54;;;;;;;21.70;11.27;;;8.80;99.90;;;;;;5078890;28;20204;-67
2022/03/30 04:43:22;;;;;;;25.48;11.90;;;8.70;99.90;;;;;;5077982;28;20890;-67
2022/03/30 04:45:49;;;;;;;17.33;11.60;;;8.70;99.90;;;;;;5077246;28;20731;-67
2022/03/30 04:48:16;;;;;;;12.55;9.70;;;8.70;99.90;;;;;;5075166;28;20273;-67
2022/03/30 04:50:43;;;;;;;17.27;11.93;;;8.80;99.90;;;;;;5080452;28;20220;-68
2022/03/30 04:53:10;;;;;;;17.15;12.00;;;8.70;99.90;;;;;;5071969;28;20321;-68
2022/03/30 04:55:37;;;;;;;16.03;10.77;;;8.80;99.90;;;;;;5070227;28;20270;-68
2022/03/30 04:58:04;;;;;;;17.02;11.45;;;8.80;99.90;;;;;;5071920;28;20560;-69
2022/03/30 05:00:32;;;;;;;17.15;12.15;;;8.80;99.90;;;;;;5067597;28;20201;-69
2022/03/30 05:02:59;;;;;;;16.40;11.60;;;8.80;99.90;;;;;;5070184;28;20211;-68
2022/03/30 05:05:27;;;;;;;17.25;11.27;;;8.80;99.90;;;;;;5076873;28;20197;-68
2022/03/30 05:07:55;;;;;;;12.73;11.20;;;8.80;99.90;;;;;;5082510;28;20217;-68
2022/03/30 05:10:22;;;;;;;18.35;13.30;;;8.80;99.90;;;;;;5069030;28;20205;-68
2022/03/30 05:12:49;;;;;;;17.95;11.73;;;8.80;99.90;;;;;;5074893;28;20200;-67
2022/03/30 05:15:16;;;;;;;18.17;11.95;;;8.80;99.90;;;;;;5067765;28;20200;-68
2022/03/30 05:17:46;;;;;;;18.23;12.13;;;8.80;99.90;;;;;;5075207;28;20278;-69
2022/03/30 05:20:13;;;;;;;16.90;12.55;;;8.80;99.90;;;;;;5071589;28;20542;-69
2022/03/30 05:22:40;;;;;;;18.93;11.27;;;8.80;99.90;;;;;;5075950;28;20206;-68
2022/03/30 05:25:08;;;;;;;16.58;12.52;;;8.80;99.90;;;;;;5070110;28;20451;-68
2022/03/30 05:27:35;;;;;;;14.65;11.57;;;8.80;99.90;;;;;;5076398;28;20419;-69
2022/03/30 05:30:03;;;;;;;16.10;11.73;;;8.90;99.90;;;;;;5069741;28;20212;-69
2022/03/30 05:32:29;;;;;;;18.08;10.02;;;8.80;99.90;;;;;;5070411;28;20481;-69
2022/03/30 05:34:58;;;;;;;18.42;11.10;;;8.80;99.90;;;;;;5079262;28;20204;-67
2022/03/30 05:37:25;;;;;;;16.80;12.27;;;8.80;99.90;;;;;;5069232;28;20282;-69
2022/03/30 05:39:52;;;;;;;19.05;11.75;;;8.90;99.90;;;;;;5077508;28;20285;-68
2022/03/30 05:42:20;;;;;;;14.17;10.57;;;8.80;99.90;;;;;;5086807;28;20227;-68
2022/03/30 05:44:47;;;;;;;21.40;12.07;;;8.80;99.90;;;;;;5088538;28;20533;-69
2022/03/30 05:47:15;;;;;;;22.33;12.80;;;8.90;99.90;;;;;;5083014;28;20200;-69
2022/03/30 05:49:42;;;;;;;16.30;11.93;;;8.90;99.90;;;;;;5090022;28;20291;-68
2022/03/30 05:52:10;;;;;;;30.48;11.80;;;8.90;99.90;;;;;;5090956;28;20261;-68
2022/03/30 05:54:38;;;;;;;16.33;12.07;;;8.90;99.90;;;;;;5081055;28;20201;-68
2022/03/30 05:57:06;;;;;;;14.13;10.45;;;8.90;99.90;;;;;;5073276;28;20204;-69
2022/03/30 05:59:35;;;;;;;16.25;11.93;;;8.90;99.90;;;;;;5089807;28;20269;-69
2022/03/30 06:02:02;;;;;;;16.25;10.70;;;9.00;99.90;;;;;;5085083;28;20205;-69
2022/03/30 06:04:30;;;;;;;17.10;11.20;;;9.00;99.90;;;;;;5090542;28;20204;-68
2022/03/30 06:06:56;;;;;;;20.42;12.70;;;9.00;99.90;;;;;;5076656;28;20271;-68
2022/03/30 06:09:24;;;;;;;17.92;11.40;;;9.00;99.90;;;;;;5076903;28;20579;-68
2022/03/30 06:11:51;;;;;;;16.38;11.93;;;9.00;99.90;;;;;;5084774;28;20239;-68
2022/03/30 06:14:18;;;;;;;16.17;12.40;;;9.00;99.90;;;;;;5090775;28;20625;-69
2022/03/30 06:16:46;;;;;;;15.47;9.43;;;8.90;99.90;;;;;;5076935;28;20294;-68
2022/03/30 06:19:13;;;;;;;14.52;10.50;;;8.90;99.90;;;;;;5070412;28;20552;-68
2022/03/30 06:21:42;;;;;;;18.70;12.23;;;8.80;99.90;;;;;;5069688;28;20201;-69
2022/03/30 06:24:10;;;;;;;17.85;11.85;;;8.80;99.90;;;;;;5077794;28;20463;-69
2022/03/30 06:26:38;;;;;;;17.10;12.50;;;8.70;99.90;;;;;;5090024;28;20277;-69
2022/03/30 06:29:05;;;;;;;25.58;11.63;;;8.70;99.90;;;;;;5073599;28;20987;-70
2022/03/30 06:31:32;;;;;;;15.48;11.25;;;8.60;99.90;;;;;;5070398;28;20197;-69
2022/03/30 06:33:59;;;;;;;21.13;10.45;;;8.60;99.90;;;;;;5085840;28;20212;-68
2022/03/30 06:36:26;;;;;;;17.73;12.50;;;8.50;99.90;;;;;;5087374;28;20193;-69
2022/03/30 06:38:52;;;;;;;18.33;12.55;;;8.60;99.90;;;;;;5079763;28;20270;-69
2022/03/30 06:41:19;;;;;;;19.40;12.85;;;8.60;99.90;;;;;;5090060;28;20208;-68
2022/03/30 06:43:47;;;;;;;14.85;11.45;;;8.70;99.90;;;;;;5078376;28;20259;-69
2022/03/30 06:46:15;;;;;;;17.43;12.73;;;8.80;99.90;;;;;;5080687;28;20198;-68
2022/03/30 06:48:42;;;;;;;18.15;11.70;;;8.90;99.90;;;;;;5082147;28;20539;-69
2022/03/30 06:51:09;;;;;;;18.00;12.40;;;9.00;99.90;;;;;;5088527;28;20683;-69
2022/03/30 06:53:36;;;;;;;17.67;11.83;;;9.00;99.90;;;;;;5081842;28;20209;-69
2022/03/30 06:56:02;;;;;;;20.73;12.87;;;9.00;99.90;;;;;;5075554;28;20453;-69
2022/03/30 06:58:29;;;;;;;18.53;11.43;;;9.20;99.90;;;;;;5083214;22;20568;-72
2022/03/30 07:00:59;;;;;;;19.10;14.02;;;9.20;99.90;;;;;;5027544;28;20450;-71
2022/03/30 07:03:26;;;;;;;20.70;14.67;;;9.30;99.90;;;;;;5036702;28;20454;-71
2022/03/30 07:05:53;;;;;;;19.27;13.30;;;9.40;99.90;;;;;;5037806;28;20567;-71
2022/03/30 07:11:04;;;;;;;24.80;12.77;;;9.50;99.90;;;;;;5051226;28;20527;-71
2022/03/30 07:13:31;;;;;;;20.07;12.30;;;9.70;99.90;;;;;;5041796;28;20491;-72
2022/03/30 07:15:59;;;;;;;20.43;12.03;;;9.80;99.90;;;;;;5041106;28;20452;-72
2022/03/30 07:18:26;;;;;;;19.67;12.23;;;9.90;99.90;;;;;;5039658;28;20492;-72
2022/03/30 07:20:53;;;;;;;18.00;13.07;;;10.10;99.90;;;;;;5028177;28;20476;-72
2022/03/30 07:23:20;;;;;;;17.23;11.87;;;10.30;99.90;;;;;;5025046;28;20454;-70
2022/03/30 07:25:47;;;;;;;26.97;13.60;;;10.30;99.90;;;;;;5022685;28;20453;-70
2022/03/30 07:28:15;;;;;;;15.67;11.10;;;10.50;99.90;;;;;;5016176;28;20543;-69
2022/03/30 07:30:43;;;;;;;23.33;11.80;;;10.60;99.90;;;;;;5030268;28;20514;-70
2022/03/30 07:33:12;;;;;;;16.93;12.23;;;10.70;99.90;;;;;;5053762;28;20571;-71
2022/03/30 07:35:45;;;;;;;14.77;12.00;;;10.70;99.90;;;;;;5038410;28;20568;-70
2022/03/30 07:38:12;;;;;;;15.33;11.70;;;10.80;99.90;;;;;;5035650;28;20596;-70
2022/03/30 07:40:39;;;;;;;15.50;10.70;;;10.80;99.90;;;;;;5034397;28;20510;-70
2022/03/30 07:43:07;;;;;;;14.00;11.33;;;10.90;99.90;;;;;;5035222;28;20457;-72
2022/03/30 07:45:34;;;;;;;20.37;11.93;;;11.00;99.90;;;;;;5029914;28;20449;-72
2022/03/30 07:48:01;;;;;;;13.90;11.33;;;11.10;99.90;;;;;;5016618;28;20484;-69
2022/03/30 07:50:29;;;;;;;11.83;10.50;;;11.10;99.90;;;;;;5026431;28;20503;-71
2022/03/30 07:52:56;;;;;;;18.67;11.77;;;11.20;99.90;;;;;;5026610;28;20917;-70
2022/03/30 07:55:24;;;;;;;15.13;10.77;;;11.30;99.90;;;;;;5026402;28;21068;-71
2022/03/30 07:57:51;;;;;;;14.50;9.70;;;11.40;99.90;;;;;;5038858;28;20489;-71
2022/03/30 08:00:19;;;;;;;17.97;12.17;;;11.50;99.90;;;;;;5024497;28;20770;-71
2022/03/30 08:02:46;;;;;;;20.10;11.70;;;11.70;99.90;;;;;;5021101;28;20457;-71
2022/03/30 08:05:13;;;;;;;13.27;11.23;;;11.90;99.90;;;;;;5030334;28;20557;-72
2022/03/30 08:07:43;;;;;;;14.07;10.70;;;11.90;99.90;;;;;;5032031;28;20451;-71
2022/03/30 08:10:10;;;;;;;15.40;10.50;;;12.00;99.90;;;;;;5033662;28;20516;-70
2022/03/30 08:12:38;;;;;;;16.63;11.33;;;12.00;99.90;;;;;;5025977;28;20480;-70
2022/03/30 08:15:05;;;;;;;15.53;11.50;;;11.90;99.90;;;;;;5023344;28;20449;-71
2022/03/30 08:17:32;;;;;;;15.17;10.70;;;11.80;99.90;;;;;;5027801;28;20541;-71
2022/03/30 08:20:00;;;;;;;17.40;10.53;;;11.70;99.90;;;;;;5041338;28;20499;-71
2022/03/30 08:22:26;;;;;;;12.40;11.00;;;11.70;99.90;;;;;;5029602;28;20462;-71
2022/03/30 08:24:54;;;;;;;14.57;9.70;;;11.70;99.90;;;;;;5030035;28;20539;-71
2022/03/30 08:27:22;;;;;;;14.80;9.80;;;11.60;99.90;;;;;;5036968;28;20505;-71
2022/03/30 08:29:50;;;;;;;19.53;10.10;;;11.70;99.90;;;;;;5034863;28;20472;-70
2022/03/30 08:32:17;;;;;;;12.70;9.73;;;11.90;99.90;;;;;;5020947;28;20529;-71
2022/03/30 08:34:45;;;;;;;15.50;10.00;;;12.10;99.90;;;;;;5042746;28;21163;-71
2022/03/30 08:37:12;;;;;;;17.63;10.73;;;12.40;99.90;;;;;;5045588;28;20518;-72
2022/03/30 08:39:39;;;;;;;16.10;9.20;;;12.70;99.90;;;;;;5056047;28;20594;-70
2022/03/30 08:42:09;;;;;;;13.23;9.43;;;12.90;99.90;;;;;;5059196;28;20459;-70
2022/03/30 08:44:37;;;;;;;14.00;10.00;;;13.00;99.90;;;;;;5038705;28;20515;-70
2022/03/30 08:47:04;;;;;;;20.00;9.57;;;13.10;99.90;;;;;;5030920;28;20452;-71
2022/03/30 08:49:33;;;;;;;12.50;8.60;;;13.30;99.90;;;;;;5033001;28;20472;-71
2022/03/30 08:52:01;;;;;;;14.57;9.27;;;13.70;99.90;;;;;;5019213;28;20470;-72
2022/03/30 08:54:28;;;;;;;11.83;8.27;;;13.90;99.90;;;;;;5029163;28;20479;-70
2022/03/30 08:56:54;;;;;;;10.23;8.27;;;14.20;99.90;;;;;;5028844;28;21006;-70
2022/03/30 08:59:24;;;;;;;14.13;9.10;;;14.50;99.90;;;;;;5028635;28;20489;-72
2022/03/30 09:01:54;;;;;;;10.73;8.47;;;14.80;99.90;;;;;;5028284;28;20473;-70
2022/03/30 09:04:21;;;;;;;14.80;7.90;;;15.00;99.90;;;;;;5040627;28;20766;-72
2022/03/30 09:06:50;;;;;;;9.83;7.47;;;15.30;99.90;;;;;;5030486;28;20585;-72
2022/03/30 09:09:28;;;;;;;17.40;9.00;;;15.40;99.90;;;;;;5035985;28;20472;-73
2022/03/30 09:11:55;;;;;;;10.50;7.13;;;15.30;99.90;;;;;;5042430;28;20938;-72
2022/03/30 09:14:25;;;;;;;10.97;8.47;;;15.30;99.90;;;;;;5029338;28;20496;-72
2022/03/30 09:16:55;;;;;;;7.80;7.00;;;15.30;99.90;;;;;;5026406;28;20569;-72
2022/03/30 09:19:21;;;;;;;15.87;9.20;;;15.30;99.90;;;;;;5028835;28;20949;-73
2022/03/30 09:21:50;;;;;;;10.17;7.83;;;15.30;99.90;;;;;;5028230;28;20532;-71
2022/03/30 09:24:18;;;;;;;9.37;8.37;;;15.40;99.90;;;;;;5029382;28;20453;-71
2022/03/30 09:26:46;;;;;;;9.60;7.37;;;15.30;99.90;;;;;;5029830;28;20528;-72
2022/03/30 09:29:13;;;;;;;8.97;7.60;;;15.30;99.90;;;;;;5026737;28;20597;-70
2022/03/30 09:31:42;;;;;;;;;;;15.50;99.90;;;;;;5031420;28;20519;-70
2022/03/30 09:34:10;;;;;;;12.18;9.30;;;15.50;99.90;;;;;;5027883;28;20562;-71
2022/03/30 09:36:39;;;;;;;11.20;8.20;;;15.60;99.90;;;;;;5027474;28;20647;-72
2022/03/30 09:39:06;;;;;;;;;;;15.60;99.90;;;;;;5027325;28;20600;-72
2022/03/30 09:41:48;;;;;;;5.80;5.68;;;15.70;99.90;;;;;;5031461;28;20463;-72
2022/03/30 09:44:15;;;;;;;8.80;7.07;;;15.90;99.90;;;;;;5032609;28;20288;-71
2022/03/30 09:46:54;;;;;;;7.27;6.57;;;16.10;99.90;;;;;;5040414;28;20544;-72
2022/03/30 09:49:39;;;;;;;6.07;5.00;;;16.50;98.50;;;;;;5027185;28;20556;-73
2022/03/30 09:52:17;;;;;;;8.63;5.80;;;16.60;96.00;;;;;;5024653;28;20506;-72
2022/03/30 09:54:49;;;;;;;8.03;5.57;;;17.00;94.60;;;;;;5017499;28;20452;-71
2022/03/30 09:57:21;;;;;;;7.13;6.00;;;17.30;92.90;;;;;;5024389;28;20475;-72
2022/03/30 10:00:03;;;;;;;10.13;6.80;;;17.30;93.90;;;;;;5033109;28;21018;-72
2022/03/30 10:02:34;;;;;;;9.70;7.00;;;17.40;94.40;;;;;;5038085;28;20457;-73
2022/03/30 10:05:01;;;;;;;6.23;5.00;;;17.50;93.90;;;;;;5034587;28;20448;-71
2022/03/30 10:07:29;;;;;;;7.40;6.73;;;17.20;92.70;;;;;;5026238;28;20518;-73
2022/03/30 10:09:57;;;;;;;10.47;6.10;;;16.90;91.70;;;;;;5018070;28;20454;-71
2022/03/30 10:12:26;;;;;;;8.23;5.90;;;16.90;91.90;;;;;;5026060;28;20457;-71
2022/03/30 10:14:54;;;;;;;7.33;5.70;;;16.80;92.00;;;;;;5027574;28;20461;-71
2022/03/30 10:17:22;;;;;;;9.53;6.13;;;16.90;92.20;;;;;;5032534;28;20452;-72
2022/03/30 10:19:52;;;;;;;8.70;6.33;;;17.10;92.00;;;;;;5019925;28;20506;-72
2022/03/30 10:22:49;;;;;;;8.23;6.30;;;17.20;92.10;;;;;;5027552;28;20919;-72
2022/03/30 10:25:27;;;;;;;9.50;6.40;;;17.20;91.30;;;;;;5030379;28;20480;-71
2022/03/30 10:27:56;;;;;;;8.17;6.73;;;17.40;92.30;;;;;;5036498;28;20500;-72
2022/03/30 10:30:27;;;;;;;10.23;6.93;;;17.50;92.10;;;;;;5019250;28;20838;-72
2022/03/30 10:32:58;;;;;;;10.90;7.10;;;17.50;91.90;;;;;;5035039;28;20468;-70
2022/03/30 10:35:39;;;;;;;7.67;6.00;;;17.60;91.60;;;;;;5018574;28;20785;-72
2022/03/30 10:38:07;;;;;;;9.50;7.10;;;17.70;91.60;;;;;;5046083;28;20464;-73
2022/03/30 10:40:34;;;;;;;8.67;7.77;;;17.80;92.20;;;;;;5042758;28;20519;-73
2022/03/30 10:43:04;;;;;;;7.30;6.57;;;17.90;91.80;;;;;;5031125;28;20479;-73
2022/03/30 10:45:40;;;;;;;8.20;7.13;;;18.00;91.70;;;;;;5028429;28;20492;-72
2022/03/30 10:48:12;;;;;;;9.10;6.80;;;18.20;91.60;;;;;;5028026;28;20483;-71
2022/03/30 10:50:42;;;;;;;11.13;8.83;;;18.20;91.40;;;;;;5026775;28;20783;-71
2022/03/30 10:53:41;;;;;;;9.20;7.13;;;18.30;91.40;;;;;;5026881;28;20492;-71
2022/03/30 10:56:44;;;;;;;7.53;6.70;;;18.50;91.20;;;;;;5025276;28;20524;-72
2022/03/30 10:59:14;;;;;;;8.57;7.43;;;18.80;91.20;;;;;;5033660;28;20511;-71
2022/03/30 11:01:42;;;;;;;10.87;7.57;;;18.70;90.70;;;;;;5032829;28;20461;-71
2022/03/30 11:04:24;;;;;;;8.33;6.20;;;18.70;90.60;;;;;;5026462;28;20516;-72
2022/03/30 11:07:40;;;;;;;8.07;6.47;;;18.90;90.20;;;;;;5023604;28;20552;-71
2022/03/30 11:10:27;;;;;;;9.30;6.63;;;18.90;90.00;;;;;;5019774;28;20452;-72
2022/03/30 11:13:23;;;;;;;7.80;6.70;;;19.20;90.10;;;;;;5026822;28;20491;-72
2022/03/30 11:16:13;;;;;;;7.53;6.60;;;19.40;88.10;;;;;;5020482;28;20476;-71
2022/03/30 11:18:58;;;;;;;10.20;7.10;;;19.50;85.80;;;;;;5027400;28;20477;-71
2022/03/30 11:21:26;;;;;;;7.70;6.17;;;19.60;86.20;;;;;;5023692;28;20540;-73
2022/03/30 11:24:20;;;;;;;6.60;5.97;;;19.70;86.20;;;;;;5034479;28;20538;-70
2022/03/30 11:27:23;;;;;;;7.57;6.47;;;20.10;86.00;;;;;;5034458;28;20457;-71
2022/03/30 11:30:10;;;;;;;8.20;5.70;;;20.70;84.20;;;;;;5031353;28;20483;-72
2022/03/30 11:32:53;;;;;;;7.33;6.17;;;21.00;84.00;;;;;;5013946;28;20471;-72
2022/03/30 11:35:24;;;;;;;7.23;5.80;;;21.50;83.90;;;;;;5033239;28;20460;-70
2022/03/30 11:38:02;;;;;;;8.07;6.33;;;22.10;83.20;;;;;;5028067;28;20485;-73
2022/03/30 11:40:29;;;;;;;9.97;7.23;;;22.40;82.90;;;;;;5027195;28;20559;-72
2022/03/30 11:42:59;;;;;;;10.80;6.83;;;22.60;80.20;;;;;;5027981;28;20535;-72
2022/03/30 11:45:29;;;;;;;6.40;5.80;;;23.10;79.60;;;;;;5022215;28;20556;-71
2022/03/30 11:47:58;;;;;;;6.07;5.47;;;23.70;77.20;;;;;;5040645;28;21075;-71
2022/03/30 11:50:27;;;;;;;6.53;5.70;;;24.40;77.30;;;;;;5029634;28;21003;-73
2022/03/30 11:52:55;;;;;;;6.77;6.07;;;24.90;74.10;;;;;;5024545;28;20932;-72
2022/03/30 11:55:22;;;;;;;6.33;5.40;;;25.40;73.10;;;;;;5019658;28;20431;-71
2022/03/30 11:57:51;;;;;;;5.77;5.17;;;25.60;71.20;;;;;;5021638;28;20578;-72
2022/03/30 12:00:23;;;;;;;6.20;5.63;;;26.50;67.30;;;;;;5018562;28;20460;-73
2022/03/30 12:02:54;;;;;;;7.87;6.17;;;27.20;65.50;;;;;;5021228;28;20551;-72
2022/03/30 12:05:22;;;;;;;5.73;5.20;;;27.10;61.60;;;;;;5024119;28;20514;-72
2022/03/30 12:07:54;;;;;;;6.97;5.70;;;27.20;61.50;;;;;;5025021;28;20439;-73
2022/03/30 12:10:26;;;;;;;6.80;6.00;;;27.60;60.10;;;;;;5027951;28;20431;-72
2022/03/30 12:12:53;;;;;;;5.73;5.17;;;27.70;59.20;;;;;;5025170;28;20960;-74
2022/03/30 12:15:21;;;;;;;7.70;5.73;;;27.20;58.50;;;;;;5024911;28;20427;-72
2022/03/30 12:17:53;;;;;;;6.77;5.83;;;27.00;58.30;;;;;;5025043;28;20448;-73
2022/03/30 12:20:25;;;;;;;10.20;6.37;;;27.30;57.40;;;;;;5024423;28;20544;-71
2022/03/30 12:22:58;;;;;;;78.50;38.45;;;27.30;56.10;;;;;;5024375;28;20532;-71
2022/03/30 12:25:27;;;;;;;8.50;6.07;;;27.40;57.00;;;;;;5021222;28;20234;-74
2022/03/30 12:27:53;;;;;;;11.73;6.33;;;27.20;57.50;;;;;;5023134;28;20558;-72
2022/03/30 12:30:22;;;;;;;7.07;5.90;;;27.70;57.30;;;;;;5024213;28;20449;-71
2022/03/30 12:32:49;;;;;;;6.97;5.70;;;28.70;56.30;;;;;;5026310;28;20949;-71
2022/03/30 12:35:18;;;;;;;6.80;5.03;;;29.70;54.40;;;;;;5013034;28;20431;-71
2022/03/30 12:37:46;;;;;;;4.93;4.53;;;29.70;53.30;;;;;;5020284;28;20502;-71
2022/03/30 12:40:18;;;;;;;7.73;6.43;;;29.60;52.90;;;;;;5024449;28;20494;-71
2022/03/30 12:42:45;;;;;;;9.10;5.93;;;28.30;52.40;;;;;;5025908;28;20476;-71
2022/03/30 12:45:15;;;;;;;9.40;9.20;;;26.40;53.10;;;;;;5024530;28;20441;-71
2022/03/30 12:47:50;;;;;;;39.37;7.23;;;24.20;55.40;;;;;;5024955;28;20446;-70
2022/03/30 12:50:18;;;;;;;;;;;23.40;56.70;;;;;;5028274;28;20924;-71
2022/03/30 12:52:47;;;;;;;;;;;24.20;56.90;;;;;;5024856;28;19996;-71
2022/03/30 12:55:16;;;;;;;;;;;24.10;56.90;;;;;;5026266;28;20092;-70